createdAt,value
2018-06-30T00:00:58.752Z,18.00
2018-06-30T00:04:03.427Z,18.20
2018-06-30T00:07:07.567Z,18.20
2018-06-30T00:10:12.541Z,18.10
2018-06-30T00:13:17.115Z,18.20
2018-06-30T00:16:21.611Z,18.20
2018-06-30T00:19:26.682Z,18.30
2018-06-30T00:22:31.568Z,18.20
2018-06-30T00:28:40.440Z,18.10
2018-06-30T00:31:45.269Z,18.00
2018-06-30T00:34:50.195Z,17.90
2018-06-30T00:37:54.430Z,17.80
2018-06-30T00:40:59.848Z,17.80
2018-06-30T00:44:04.932Z,17.70
2018-06-30T00:47:09.406Z,17.60
2018-06-30T00:50:14.149Z,17.50
2018-06-30T00:53:18.936Z,17.40
2018-06-30T00:56:23.422Z,17.40
2018-06-30T00:59:27.854Z,17.30
2018-06-30T01:02:32.146Z,17.40
2018-06-30T01:05:37.085Z,17.30
2018-06-30T01:08:41.779Z,17.30
2018-06-30T01:11:46.660Z,17.30
2018-06-30T01:14:51.381Z,17.30
2018-06-30T01:17:56.098Z,17.20
2018-06-30T01:21:00.880Z,17.10
2018-06-30T01:24:05.472Z,17.10
2018-06-30T01:27:09.829Z,17.00
2018-06-30T01:30:14.308Z,16.90
2018-06-30T01:33:18.910Z,16.90
2018-06-30T01:36:23.799Z,16.80
2018-06-30T01:39:28.659Z,16.70
2018-06-30T01:42:33.767Z,16.60
2018-06-30T01:45:38.153Z,16.60
2018-06-30T01:48:42.872Z,16.50
2018-06-30T01:51:47.583Z,16.50
2018-06-30T01:54:51.859Z,16.50
2018-06-30T01:57:56.726Z,16.40
2018-06-30T02:01:01.282Z,16.40
2018-06-30T02:04:06.485Z,16.40
2018-06-30T02:07:11.319Z,16.30
2018-06-30T02:10:16.675Z,16.30
2018-06-30T02:13:21.489Z,16.20
2018-06-30T02:16:26.345Z,16.20
2018-06-30T02:19:31.350Z,16.10
2018-06-30T02:22:36.390Z,16.10
2018-06-30T02:25:41.223Z,16.10
2018-06-30T02:28:45.795Z,16.10
2018-06-30T02:31:50.764Z,16.10
2018-06-30T02:34:55.396Z,16.10
2018-06-30T02:38:00.726Z,16.10
2018-06-30T02:41:05.188Z,16.10
2018-06-30T02:44:09.918Z,16.10
2018-06-30T02:47:14.606Z,16.00
2018-06-30T02:50:18.901Z,16.00
2018-06-30T02:53:23.401Z,15.90
2018-06-30T02:56:27.960Z,15.80
2018-06-30T02:59:32.465Z,15.80
2018-06-30T03:02:37.999Z,15.70
2018-06-30T03:05:42.566Z,15.60
2018-06-30T03:08:47.087Z,15.50
2018-06-30T03:11:51.891Z,15.50
2018-06-30T03:14:56.455Z,15.50
2018-06-30T03:18:01.272Z,15.40
2018-06-30T03:21:05.910Z,15.30
2018-06-30T03:24:11.037Z,15.30
2018-06-30T03:27:15.715Z,15.20
2018-06-30T03:30:19.939Z,15.20
2018-06-30T03:33:24.729Z,15.20
2018-06-30T03:36:29.731Z,15.10
2018-06-30T03:39:34.691Z,15.00
2018-06-30T03:42:39.663Z,15.10
2018-06-30T03:45:44.810Z,15.10
2018-06-30T03:48:49.642Z,15.00
2018-06-30T03:51:54.430Z,15.00
2018-06-30T03:54:58.684Z,15.00
2018-06-30T03:58:03.491Z,15.00
2018-06-30T04:01:08.980Z,15.00
2018-06-30T04:04:13.378Z,15.00
2018-06-30T04:07:18.040Z,14.90
2018-06-30T04:10:22.306Z,15.00
2018-06-30T04:13:26.997Z,15.00
2018-06-30T04:16:31.539Z,15.00
2018-06-30T04:19:36.644Z,14.90
2018-06-30T04:22:41.176Z,14.90
2018-06-30T04:25:45.672Z,14.90
2018-06-30T04:28:50.086Z,14.80
2018-06-30T04:31:54.312Z,14.80
2018-06-30T04:34:58.925Z,14.90
2018-06-30T04:38:03.187Z,15.00
2018-06-30T04:41:08.132Z,15.00
2018-06-30T04:44:13.076Z,15.00
2018-06-30T04:47:17.716Z,14.90
2018-06-30T04:50:22.971Z,15.00
2018-06-30T04:53:27.394Z,15.00
2018-06-30T04:56:32.371Z,15.20
2018-06-30T04:59:37.222Z,15.40
2018-06-30T05:02:41.850Z,15.40
2018-06-30T05:05:46.584Z,15.40
2018-06-30T05:08:51.448Z,15.40
2018-06-30T05:11:56.397Z,15.30
2018-06-30T05:15:01.152Z,15.40
2018-06-30T05:18:06.221Z,15.40
2018-06-30T05:21:10.758Z,15.20
2018-06-30T05:24:17.009Z,15.20
2018-06-30T05:27:21.329Z,15.20
2018-06-30T05:30:26.149Z,15.30
2018-06-30T05:33:30.870Z,15.40
2018-06-30T05:36:35.977Z,15.30
2018-06-30T05:39:40.850Z,15.60
2018-06-30T05:42:45.387Z,15.50
2018-06-30T05:45:50.737Z,15.80
2018-06-30T05:48:56.077Z,16.10
2018-06-30T05:52:01.090Z,15.90
2018-06-30T05:55:05.870Z,16.10
2018-06-30T05:58:11.191Z,16.30
2018-06-30T06:01:16.196Z,16.30
2018-06-30T06:04:20.900Z,16.20
2018-06-30T06:07:26.044Z,16.60
2018-06-30T06:10:30.635Z,18.50
2018-06-30T06:13:35.589Z,19.30
2018-06-30T06:16:40.403Z,20.60
2018-06-30T06:19:45.912Z,21.20
2018-06-30T06:22:50.689Z,22.60
2018-06-30T06:25:55.502Z,23.40
2018-06-30T06:28:59.943Z,23.70
2018-06-30T06:32:04.533Z,24.20
2018-06-30T06:35:09.449Z,25.70
2018-06-30T06:38:14.571Z,25.10
2018-06-30T06:41:19.447Z,23.00
2018-06-30T06:44:24.928Z,21.80
2018-06-30T06:47:29.965Z,20.40
2018-06-30T06:50:34.929Z,21.70
2018-06-30T06:53:39.651Z,21.70
2018-06-30T06:56:44.296Z,21.70
2018-06-30T06:59:49.345Z,22.30
2018-06-30T07:02:55.721Z,21.00
2018-06-30T07:06:00.634Z,20.60
2018-06-30T07:09:08.894Z,22.00
2018-06-30T07:12:13.879Z,23.30
2018-06-30T07:15:18.669Z,23.60
2018-06-30T07:18:23.449Z,21.30
2018-06-30T07:21:28.285Z,19.80
2018-06-30T07:24:33.215Z,20.70
2018-06-30T07:27:38.116Z,22.50
2018-06-30T07:30:43.066Z,23.90
2018-06-30T07:33:47.505Z,24.00
2018-06-30T07:36:51.801Z,24.80
2018-06-30T07:39:56.481Z,25.00
2018-06-30T07:43:00.920Z,25.70
2018-06-30T07:46:05.765Z,25.60
2018-06-30T07:49:10.666Z,26.70
2018-06-30T07:52:15.230Z,25.50
2018-06-30T07:55:20.004Z,26.00
2018-06-30T07:58:24.661Z,25.90
2018-06-30T08:01:29.400Z,26.60
2018-06-30T08:04:34.096Z,26.30
2018-06-30T08:07:39.098Z,25.70
2018-06-30T08:10:43.649Z,26.40
2018-06-30T08:13:48.164Z,26.40
2018-06-30T08:16:52.961Z,26.40
2018-06-30T08:19:57.350Z,26.30
2018-06-30T08:23:02.103Z,26.90
2018-06-30T08:26:06.837Z,26.50
2018-06-30T08:29:11.774Z,25.80
2018-06-30T08:32:16.476Z,24.80
2018-06-30T08:35:20.855Z,26.10
2018-06-30T08:38:25.398Z,25.50
2018-06-30T08:41:29.514Z,25.00
2018-06-30T08:44:34.127Z,25.40
2018-06-30T08:47:39.051Z,25.60
2018-06-30T08:50:43.796Z,25.00
2018-06-30T08:53:49.282Z,26.10
2018-06-30T08:56:54.266Z,26.50
2018-06-30T08:59:58.615Z,28.10
2018-06-30T09:03:03.480Z,28.70
2018-06-30T09:06:08.264Z,28.10
2018-06-30T09:09:13.674Z,27.50
2018-06-30T09:12:18.667Z,27.00
2018-06-30T09:15:23.573Z,26.50
2018-06-30T09:18:28.423Z,26.00
2018-06-30T09:21:33.254Z,26.40
2018-06-30T09:24:38.278Z,24.90
2018-06-30T09:27:43.007Z,24.70
2018-06-30T09:30:47.699Z,25.10
2018-06-30T09:34:01.603Z,25.40
2018-06-30T09:37:06.473Z,26.10
2018-06-30T09:40:11.492Z,25.30
2018-06-30T09:43:16.228Z,26.20
2018-06-30T09:46:20.764Z,26.80
2018-06-30T09:49:25.295Z,26.20
2018-06-30T09:52:30.148Z,26.70
2018-06-30T09:55:35.456Z,26.20
2018-06-30T09:58:40.088Z,27.20
2018-06-30T10:01:44.502Z,27.60
2018-06-30T10:04:48.831Z,27.20
2018-06-30T10:07:53.393Z,26.10
2018-06-30T10:10:58.388Z,26.80
2018-06-30T10:14:02.965Z,27.60
2018-06-30T10:17:07.920Z,27.10
2018-06-30T10:20:12.881Z,27.10
2018-06-30T10:23:17.830Z,26.80
2018-06-30T10:26:22.648Z,25.90
2018-06-30T10:29:27.090Z,25.80
2018-06-30T10:32:31.654Z,25.10
2018-06-30T10:35:36.229Z,25.50
2018-06-30T10:38:40.911Z,25.10
2018-06-30T10:41:45.212Z,24.80
2018-06-30T10:44:50.315Z,25.80
2018-06-30T10:47:55.264Z,26.10
2018-06-30T10:51:00.049Z,25.20
2018-06-30T10:54:04.844Z,25.10
2018-06-30T10:57:10.494Z,25.10
2018-06-30T11:00:15.035Z,25.00
2018-06-30T11:03:19.802Z,25.00
2018-06-30T11:06:24.549Z,24.70
2018-06-30T11:09:29.692Z,24.60
2018-06-30T11:12:34.861Z,25.00
2018-06-30T11:15:39.155Z,25.60
2018-06-30T11:18:43.766Z,25.70
2018-06-30T11:21:48.373Z,25.30
2018-06-30T11:24:53.127Z,25.60
2018-06-30T11:27:57.726Z,25.10
2018-06-30T11:31:02.659Z,24.90
2018-06-30T11:34:07.183Z,24.70
2018-06-30T11:37:11.526Z,24.00
2018-06-30T11:40:17.110Z,24.10
2018-06-30T11:43:21.498Z,23.70
2018-06-30T11:46:26.178Z,23.30
2018-06-30T11:49:30.631Z,23.00
2018-06-30T11:52:35.532Z,23.30
2018-06-30T11:55:40.379Z,22.50
2018-06-30T11:58:44.865Z,22.40
2018-06-30T12:01:49.471Z,22.20
2018-06-30T12:04:53.911Z,22.50
2018-06-30T12:07:58.908Z,22.80
2018-06-30T12:11:03.842Z,22.60
2018-06-30T12:14:09.205Z,22.60
2018-06-30T12:17:13.654Z,22.60
2018-06-30T12:20:18.314Z,22.30
2018-06-30T12:23:23.134Z,22.30
2018-06-30T12:26:27.866Z,22.50
2018-06-30T12:29:32.523Z,22.20
2018-06-30T12:32:37.208Z,22.30
2018-06-30T12:35:41.676Z,22.10
2018-06-30T12:38:46.157Z,22.30
2018-06-30T12:41:50.512Z,22.60
2018-06-30T12:44:54.868Z,22.50
2018-06-30T12:47:59.446Z,22.40
2018-06-30T12:51:04.338Z,22.40
2018-06-30T12:54:09.298Z,22.60
2018-06-30T12:57:14.034Z,22.40
2018-06-30T13:00:18.669Z,22.30
2018-06-30T13:03:23.640Z,22.50
2018-06-30T13:06:28.685Z,22.40
2018-06-30T13:09:33.671Z,22.30
2018-06-30T13:12:38.340Z,22.30
2018-06-30T13:15:42.935Z,22.40
2018-06-30T13:18:47.574Z,22.60
2018-06-30T13:21:52.094Z,22.70
2018-06-30T13:24:56.921Z,22.60
2018-06-30T13:28:01.650Z,22.40
2018-06-30T13:31:06.575Z,22.60
2018-06-30T13:34:11.210Z,22.60
2018-06-30T13:37:15.723Z,22.70
2018-06-30T13:40:20.452Z,22.50
2018-06-30T13:43:25.227Z,22.50
2018-06-30T13:46:29.744Z,22.30
2018-06-30T13:49:34.174Z,22.30
2018-06-30T13:52:38.934Z,22.30
2018-06-30T13:55:43.371Z,22.60
2018-06-30T13:58:48.160Z,22.40
2018-06-30T14:01:52.702Z,22.50
2018-06-30T14:04:57.578Z,22.60
2018-06-30T14:08:02.189Z,22.60
2018-06-30T14:11:06.988Z,22.80
2018-06-30T14:14:11.778Z,22.60
2018-06-30T14:17:16.283Z,22.50
2018-06-30T14:20:20.972Z,22.40
2018-06-30T14:23:25.813Z,22.40
2018-06-30T14:26:30.128Z,22.60
2018-06-30T14:29:34.647Z,22.60
2018-06-30T14:32:39.591Z,22.80
2018-06-30T14:35:44.564Z,22.90
2018-06-30T14:38:49.353Z,22.60
2018-06-30T14:41:54.050Z,22.60
2018-06-30T14:44:58.846Z,22.50
2018-06-30T14:48:03.754Z,22.70
2018-06-30T14:51:08.056Z,22.70
2018-06-30T14:54:12.776Z,22.60
2018-06-30T14:57:17.693Z,22.70
2018-06-30T15:00:22.187Z,22.70
2018-06-30T15:03:26.715Z,22.30
2018-06-30T15:06:31.381Z,22.60
2018-06-30T15:09:36.516Z,22.70
2018-06-30T15:12:41.259Z,22.60
2018-06-30T15:15:45.847Z,22.60
2018-06-30T15:18:50.360Z,22.60
2018-06-30T15:21:55.296Z,22.50
2018-06-30T15:25:01.091Z,22.60
2018-06-30T15:28:05.645Z,22.40
2018-06-30T15:34:14.556Z,22.50
2018-06-30T15:37:19.041Z,22.50
2018-06-30T15:40:23.722Z,22.60
2018-06-30T15:43:28.418Z,22.50
2018-06-30T15:46:32.763Z,22.40
2018-06-30T15:49:37.868Z,22.20
2018-06-30T15:52:43.122Z,22.30
2018-06-30T15:55:47.556Z,22.40
2018-06-30T15:58:52.228Z,22.50
2018-06-30T16:01:57.323Z,22.60
2018-06-30T16:05:01.988Z,22.40
2018-06-30T16:08:06.669Z,22.40
2018-06-30T16:11:11.731Z,22.40
2018-06-30T16:14:17.071Z,22.30
2018-06-30T16:17:21.491Z,22.40
2018-06-30T16:20:25.977Z,22.40
2018-06-30T16:23:30.556Z,22.30
2018-06-30T16:26:35.719Z,22.30
2018-06-30T16:29:40.351Z,22.30
2018-06-30T16:32:45.099Z,22.20
2018-06-30T16:35:49.846Z,22.00
2018-06-30T16:38:54.075Z,22.10
2018-06-30T16:41:58.664Z,22.00
2018-06-30T16:45:03.388Z,22.10
2018-06-30T16:48:07.718Z,22.10
2018-06-30T16:51:12.487Z,22.00
2018-06-30T16:54:17.507Z,22.10
2018-06-30T16:57:22.538Z,22.00
2018-06-30T17:00:27.261Z,21.90
2018-06-30T17:03:31.602Z,21.80
2018-06-30T17:06:36.201Z,21.90
2018-06-30T17:09:40.530Z,21.80
2018-06-30T17:12:45.304Z,21.80
2018-06-30T17:15:49.904Z,21.80
2018-06-30T17:18:54.119Z,21.90
2018-06-30T17:21:58.936Z,21.80
2018-06-30T17:25:03.353Z,21.80
2018-06-30T17:28:07.795Z,21.70
2018-06-30T17:31:12.628Z,21.60
2018-06-30T17:34:17.161Z,21.50
2018-06-30T17:37:21.616Z,21.50
2018-06-30T17:40:25.975Z,21.40
2018-06-30T17:43:30.365Z,21.40
2018-06-30T17:46:35.584Z,21.40
2018-06-30T17:49:40.586Z,21.40
2018-06-30T17:52:45.282Z,21.40
2018-06-30T17:55:51.471Z,21.30
2018-06-30T17:58:56.037Z,21.30
2018-06-30T18:02:00.828Z,21.20
2018-06-30T18:05:05.937Z,21.10
2018-06-30T18:08:10.160Z,21.10
2018-06-30T18:11:14.854Z,21.00
2018-06-30T18:14:19.399Z,21.00
2018-06-30T18:17:24.328Z,21.00
2018-06-30T18:20:28.907Z,20.90
2018-06-30T18:23:33.300Z,20.80
2018-06-30T18:26:38.951Z,20.70
2018-06-30T18:29:43.975Z,20.70
2018-06-30T18:32:48.509Z,20.70
2018-06-30T18:35:53.232Z,20.60
2018-06-30T18:38:58.252Z,20.50
2018-06-30T18:42:02.906Z,20.50
2018-06-30T18:45:07.508Z,20.40
2018-06-30T18:48:12.283Z,20.40
2018-06-30T18:51:17.248Z,20.20
2018-06-30T18:54:21.757Z,20.10
2018-06-30T18:57:26.113Z,20.10
2018-06-30T19:00:30.608Z,20.00
2018-06-30T19:03:35.112Z,19.90
2018-06-30T19:06:40.349Z,19.80
2018-06-30T19:09:45.080Z,19.70
2018-06-30T19:12:49.817Z,19.60
2018-06-30T19:15:54.153Z,19.60
2018-06-30T19:18:58.779Z,19.40
2018-06-30T19:22:03.363Z,19.30
2018-06-30T19:25:08.017Z,19.20
2018-06-30T19:28:12.250Z,19.20
2018-06-30T19:31:17.695Z,19.10
2018-06-30T19:34:22.969Z,19.00
2018-06-30T19:37:27.452Z,18.90
2018-06-30T19:40:32.193Z,18.80
2018-06-30T19:43:37.245Z,18.70
2018-06-30T19:46:42.076Z,18.60
2018-06-30T19:49:46.739Z,18.50
2018-06-30T19:52:51.881Z,18.50
2018-06-30T19:55:56.215Z,18.40
2018-06-30T19:59:01.120Z,18.40
2018-06-30T20:02:06.169Z,18.20
2018-06-30T20:05:10.795Z,18.10
2018-06-30T20:08:15.323Z,18.00
2018-06-30T20:11:19.688Z,18.00
2018-06-30T20:14:25.203Z,17.80
2018-06-30T20:17:30.120Z,17.80
2018-06-30T20:20:34.702Z,17.70
2018-06-30T20:23:39.258Z,17.60
2018-06-30T20:26:45.825Z,17.40
2018-06-30T20:29:50.560Z,17.30
2018-06-30T20:32:55.027Z,17.00
2018-06-30T20:35:59.568Z,16.90
2018-06-30T20:39:05.363Z,16.80
2018-06-30T20:42:09.911Z,16.70
2018-06-30T20:45:14.805Z,16.60
2018-06-30T20:48:19.330Z,16.50
2018-06-30T20:51:23.983Z,16.40
2018-06-30T20:54:28.879Z,16.30
2018-06-30T20:57:34.148Z,16.30
2018-06-30T21:00:38.778Z,16.30
2018-06-30T21:03:43.630Z,16.20
2018-06-30T21:09:52.416Z,16.20
2018-06-30T21:12:57.523Z,16.10
2018-06-30T21:16:02.540Z,16.00
2018-06-30T21:19:07.642Z,15.90
2018-06-30T21:22:12.423Z,15.80
2018-06-30T21:25:17.312Z,15.60
2018-06-30T21:28:22.368Z,15.60
2018-06-30T21:31:27.098Z,15.50
2018-06-30T21:34:31.934Z,15.50
2018-06-30T21:37:36.759Z,15.40
2018-06-30T21:40:41.749Z,15.30
2018-06-30T21:43:46.329Z,15.30
2018-06-30T21:46:50.778Z,15.20
2018-06-30T21:49:55.306Z,15.20
2018-06-30T21:52:59.559Z,15.10
2018-06-30T21:56:04.985Z,15.00
2018-06-30T21:59:09.906Z,14.90
2018-06-30T22:02:15.862Z,14.90
2018-06-30T22:05:20.438Z,14.90
2018-06-30T22:08:24.871Z,14.90
2018-06-30T22:11:29.264Z,14.90
2018-06-30T22:14:33.897Z,14.80
2018-06-30T22:17:38.532Z,14.70
2018-06-30T22:20:42.983Z,14.60
2018-06-30T22:23:47.238Z,14.60
2018-06-30T22:26:51.899Z,14.50
2018-06-30T22:29:56.472Z,14.30
2018-06-30T22:33:00.965Z,14.30
2018-06-30T22:36:05.650Z,14.30
2018-06-30T22:39:12.049Z,14.20
2018-06-30T22:42:16.649Z,14.20
2018-06-30T22:45:22.105Z,14.20
2018-06-30T22:48:26.891Z,14.20
2018-06-30T22:55:17.606Z,14.10
2018-06-30T22:58:22.807Z,13.90
2018-06-30T23:01:29.482Z,14.00
2018-06-30T23:04:34.711Z,13.90
2018-06-30T23:07:40.058Z,14.10
2018-06-30T23:10:44.699Z,13.80
2018-06-30T23:13:49.458Z,13.70
2018-06-30T23:16:54.048Z,13.70
2018-06-30T23:19:58.597Z,13.70
2018-06-30T23:23:04.643Z,13.60
2018-06-30T23:26:09.259Z,13.50
2018-06-30T23:29:13.766Z,13.40
2018-06-30T23:32:18.351Z,13.20
2018-06-30T23:35:24.559Z,13.20
2018-06-30T23:38:29.017Z,13.10
2018-06-30T23:41:33.727Z,13.00
2018-06-30T23:44:38.505Z,13.00
2018-06-30T23:47:43.031Z,13.10
2018-06-30T23:50:47.717Z,13.00
2018-06-30T23:53:52.556Z,13.00
2018-06-30T23:56:58.526Z,12.90
